Time;durP1;ratioP1;P1;durP2;ratioP2;P2;SDS_P1;SDS_P2;PMS_P1;PMS_P2;Temp;Humidity;BMP_temperature;BMP_pressure;BME280_temperature;BME280_humidity;BME280_pressure;Samples;Min_cycle;Max_cycle;Signal;HPM_P1;HPM_P2
2023/10/07 00:01:59;;;;;;;7.53;4.40;;;14.20;30.60;;;;;;5041553;28;20639;-68
2023/10/07 00:04:26;;;;;;;7.07;4.55;;;14.20;50.60;;;;;;5041942;28;21387;-68
2023/10/07 00:06:53;;;;;;;10.05;4.22;;;14.50;48.60;;;;;;5043856;28;20475;-68
2023/10/07 00:09:22;;;;;;;8.40;4.30;;;14.00;48.20;;;;;;5041328;28;20524;-68
2023/10/07 00:11:49;;;;;;;9.70;4.90;;;14.30;59.30;;;;;;5041858;28;20581;-69
2023/10/07 00:14:16;;;;;;;9.50;4.38;;;14.20;82.80;;;;;;5043712;28;20508;-69
2023/10/07 00:16:46;;;;;;;11.00;4.82;;;14.10;91.90;;;;;;5041736;28;20465;-69
2023/10/07 00:19:14;;;;;;;9.45;4.68;;;14.20;97.30;;;;;;5041599;28;20459;-68
2023/10/07 00:21:53;;;;;;;8.40;4.72;;;14.30;99.90;;;;;;5043350;28;20508;-68
2023/10/07 00:24:20;;;;;;;8.05;4.75;;;14.30;98.30;;;;;;5043036;28;20422;-68
2023/10/07 00:26:47;;;;;;;9.40;4.30;;;14.30;99.20;;;;;;5043173;28;20494;-68
2023/10/07 00:29:14;;;;;;;10.45;4.75;;;14.20;99.90;;;;;;5041280;28;20517;-68
2023/10/07 00:31:41;;;;;;;9.10;4.05;;;14.30;99.90;;;;;;5041078;28;20646;-68
2023/10/07 00:34:16;;;;;;;9.82;4.78;;;14.40;99.90;;;;;;5043149;28;20416;-68
2023/10/07 00:36:47;;;;;;;9.48;4.25;;;14.10;99.90;;;;;;5039521;28;20937;-68
2023/10/07 00:39:20;;;;;;;8.35;4.57;;;14.00;99.90;;;;;;5042904;28;20458;-69
2023/10/07 00:41:50;;;;;;;9.63;4.35;;;14.20;99.90;;;;;;5042204;28;20564;-68
2023/10/07 00:44:21;;;;;;;8.90;4.65;;;14.30;99.90;;;;;;5039781;28;20460;-68
2023/10/07 00:46:55;;;;;;;8.65;4.78;;;13.90;99.90;;;;;;5041456;28;20485;-69
2023/10/07 00:49:22;;;;;;;6.93;4.27;;;14.00;99.90;;;;;;5042733;28;20984;-67
2023/10/07 00:51:53;;;;;;;8.88;4.90;;;14.00;99.90;;;;;;5041252;28;20518;-69
2023/10/07 00:54:30;;;;;;;11.27;5.07;;;14.00;99.90;;;;;;5041870;28;20527;-69
2023/10/07 00:57:07;;;;;;;10.32;4.90;;;13.90;99.90;;;;;;5041231;28;20473;-68
2023/10/07 00:59:34;;;;;;;9.02;4.65;;;13.80;99.90;;;;;;5040096;28;20573;-69
2023/10/07 01:02:06;;;;;;;11.60;4.60;;;13.90;99.90;;;;;;5041067;28;20991;-69
2023/10/07 01:04:40;;;;;;;9.23;5.00;;;13.80;99.90;;;;;;5042580;28;20472;-68
2023/10/07 01:07:17;;;;;;;7.50;4.65;;;13.80;99.90;;;;;;5041539;28;20501;-68
2023/10/07 01:09:58;;;;;;;10.85;5.38;;;13.70;99.90;;;;;;5040189;28;20460;-68
2023/10/07 01:12:25;;;;;;;9.82;5.22;;;13.70;99.90;;;;;;5042531;28;20484;-68
2023/10/07 01:14:53;;;;;;;8.97;4.80;;;13.60;99.90;;;;;;5042853;28;20444;-68
2023/10/07 01:17:30;;;;;;;8.75;4.40;;;13.50;99.90;;;;;;5042361;28;20465;-69
2023/10/07 01:19:56;;;;;;;10.00;4.90;;;13.70;99.90;;;;;;5041199;28;20976;-68
2023/10/07 01:22:35;;;;;;;9.95;5.10;;;13.60;99.90;;;;;;5040841;28;20499;-69
2023/10/07 01:25:06;;;;;;;11.23;5.05;;;13.80;99.90;;;;;;5039464;28;20470;-68
2023/10/07 01:27:41;;;;;;;11.05;5.20;;;13.60;99.90;;;;;;5042171;28;20535;-68
2023/10/07 01:30:15;;;;;;;10.93;4.97;;;13.70;99.90;;;;;;5040960;28;20511;-69
2023/10/07 01:32:49;;;;;;;11.25;5.20;;;13.70;99.90;;;;;;5038929;28;20523;-69
2023/10/07 01:35:25;;;;;;;10.93;5.38;;;13.70;99.90;;;;;;5039909;28;20563;-68
2023/10/07 01:37:59;;;;;;;10.93;5.07;;;13.60;99.90;;;;;;5039929;28;20495;-68
2023/10/07 01:40:31;;;;;;;11.05;5.60;;;13.80;99.90;;;;;;5039105;28;20410;-68
2023/10/07 01:42:57;;;;;;;14.75;5.82;;;13.80;99.90;;;;;;5040170;28;20558;-68
2023/10/07 01:45:34;;;;;;;11.27;5.63;;;13.80;99.90;;;;;;5039771;28;20410;-68
2023/10/07 01:48:07;;;;;;;12.85;6.15;;;14.10;99.90;;;;;;5039690;28;20492;-67
2023/10/07 01:50:38;;;;;;;12.57;6.00;;;13.80;99.90;;;;;;5039561;28;20479;-68
2023/10/07 01:53:06;;;;;;;12.40;5.50;;;15.10;99.90;;;;;;5043222;28;20532;-68
2023/10/07 01:55:36;;;;;;;11.30;5.50;;;14.00;99.90;;;;;;5040204;28;20484;-68
2023/10/07 01:58:02;;;;;;;11.57;5.85;;;14.00;99.90;;;;;;5039174;28;20449;-68
2023/10/07 02:00:42;;;;;;;14.57;6.30;;;14.10;99.90;;;;;;5040763;28;20424;-67
2023/10/07 02:03:13;;;;;;;14.03;5.93;;;14.00;99.90;;;;;;5038989;28;20516;-68
2023/10/07 02:05:41;;;;;;;11.18;6.00;;;15.90;99.90;;;;;;5039871;28;20554;-68
2023/10/07 02:08:14;;;;;;;15.40;6.47;;;14.10;99.90;;;;;;5041357;28;20986;-68
2023/10/07 02:10:41;;;;;;;13.45;6.43;;;14.20;99.90;;;;;;5040065;28;20914;-68
2023/10/07 02:13:09;;;;;;;12.07;6.30;;;14.10;99.90;;;;;;5039031;28;20430;-69
2023/10/07 02:15:37;;;;;;;10.97;6.47;;;;;;;;;;5038895;28;20505;-68
2023/10/07 02:18:04;;;;;;;13.05;6.50;;;14.10;99.90;;;;;;5040053;28;20480;-68
2023/10/07 02:20:38;;;;;;;14.80;7.45;;;14.20;99.90;;;;;;5041245;28;20425;-68
2023/10/07 02:23:12;;;;;;;15.30;7.68;;;;;;;;;;5041402;28;20458;-68
2023/10/07 02:25:41;;;;;;;14.17;7.17;;;14.10;99.90;;;;;;5040362;28;20559;-68
2023/10/07 02:28:08;;;;;;;14.40;7.45;;;14.10;99.90;;;;;;5038467;28;20502;-68
2023/10/07 02:30:50;;;;;;;12.25;7.10;;;14.10;99.90;;;;;;5046715;28;20528;-69
2023/10/07 02:33:16;;;;;;;11.25;7.15;;;14.00;99.90;;;;;;5043694;28;20943;-68
2023/10/07 02:35:46;;;;;;;16.00;7.70;;;14.40;99.90;;;;;;5041118;28;20428;-69
2023/10/07 02:38:23;;;;;;;15.00;7.75;;;14.10;99.90;;;;;;5040145;28;20456;-68
2023/10/07 02:40:52;;;;;;;13.05;7.05;;;14.00;99.90;;;;;;5042068;28;20482;-68
2023/10/07 02:43:20;;;;;;;14.40;8.13;;;14.20;99.90;;;;;;5039077;28;20510;-69
2023/10/07 02:45:47;;;;;;;13.18;7.75;;;14.00;99.90;;;;;;5039270;28;20426;-69
2023/10/07 02:48:14;;;;;;;12.65;7.70;;;14.00;99.90;;;;;;5039298;28;21238;-70
2023/10/07 02:50:42;;;;;;;15.48;7.57;;;14.00;99.90;;;;;;5041753;28;20409;-69
2023/10/07 02:53:14;;;;;;;16.73;7.95;;;14.10;99.90;;;;;;5039770;28;20461;-69
2023/10/07 02:55:48;;;;;;;16.50;8.30;;;14.00;99.90;;;;;;5037446;28;20994;-69
2023/10/07 02:58:27;;;;;;;16.92;8.13;;;14.20;99.90;;;;;;5038799;28;20468;-69
2023/10/07 03:00:58;;;;;;;15.13;8.63;;;14.10;99.90;;;;;;5039497;28;20526;-69
2023/10/07 03:03:38;;;;;;;14.90;7.55;;;14.20;99.90;;;;;;5037894;28;20502;-69
2023/10/07 03:06:07;;;;;;;15.23;7.97;;;14.40;99.90;;;;;;5040072;28;20482;-68
2023/10/07 03:08:42;;;;;;;17.15;8.82;;;14.10;99.90;;;;;;5045071;28;20486;-69
2023/10/07 03:11:13;;;;;;;15.77;8.55;;;14.10;99.90;;;;;;5042616;28;20500;-69
2023/10/07 03:13:45;;;;;;;17.60;8.43;;;14.40;99.90;;;;;;5042363;28;20422;-69
2023/10/07 03:16:35;;;;;;;16.45;8.90;;;14.40;99.90;;;;;;5042837;28;20869;-69
2023/10/07 03:19:08;;;;;;;16.40;8.38;;;13.70;99.90;;;;;;5044376;28;20832;-69
2023/10/07 03:24:28;;;;;;;16.33;8.35;;;14.40;99.90;;;;;;5042664;28;20451;-70
2023/10/07 03:27:05;;;;;;;14.18;9.05;;;14.40;99.90;;;;;;5042189;28;20457;-69
2023/10/07 03:29:37;;;;;;;16.77;9.30;;;14.20;99.90;;;;;;5043322;28;20496;-70
2023/10/07 03:32:08;;;;;;;16.88;9.35;;;14.10;99.90;;;;;;5041722;28;20475;-68
2023/10/07 03:34:36;;;;;;;17.70;10.18;;;14.40;99.90;;;;;;5043442;28;20413;-69
2023/10/07 03:37:15;;;;;;;18.80;10.10;;;14.20;99.90;;;;;;5044608;28;20457;-69
2023/10/07 03:42:26;;;;;;;18.63;11.32;;;14.20;99.90;;;;;;5041967;28;20462;-69
2023/10/07 03:44:54;;;;;;;17.65;11.02;;;14.70;99.90;;;;;;5041262;28;21152;-69
2023/10/07 03:47:21;;;;;;;17.92;11.48;;;14.30;99.90;;;;;;5042397;28;20845;-69
2023/10/07 03:49:53;;;;;;;17.20;10.77;;;14.30;99.90;;;;;;5043262;28;20429;-69
2023/10/07 03:52:21;;;;;;;18.27;10.45;;;14.30;99.90;;;;;;5041306;28;20567;-69
2023/10/07 03:54:49;;;;;;;22.55;10.82;;;15.10;99.90;;;;;;5044678;28;20555;-69
2023/10/07 03:57:18;;;;;;;18.20;10.93;;;;;;;;;;5041535;28;20415;-68
2023/10/07 03:59:46;;;;;;;16.85;10.98;;;;;;;;;;5041142;28;20415;-69
2023/10/07 04:05:00;;;;;;;19.17;11.85;;;;;;;;;;5042284;28;20965;-69
2023/10/07 04:07:27;;;;;;;21.95;11.63;;;;;;;;;;5041345;28;20459;-69
2023/10/07 04:09:54;;;;;;;20.50;12.18;;;;;;;;;;5041387;28;20520;-69
2023/10/07 04:12:26;;;;;;;20.45;11.98;;;;;;;;;;5042570;28;20458;-69
2023/10/07 04:14:55;;;;;;;19.65;12.25;;;;;;;;;;5043632;28;20477;-69
2023/10/07 04:17:24;;;;;;;21.75;11.85;;;;;;;;;;5041119;28;20460;-68
2023/10/07 04:19:53;;;;;;;19.50;12.02;;;;;;;;;;5041054;28;20861;-69
2023/10/07 04:22:24;;;;;;;19.05;12.10;;;;;;;;;;5040738;28;20423;-69
2023/10/07 04:24:51;;;;;;;22.93;12.07;;;;;;;;;;5045321;28;20463;-69
2023/10/07 04:27:22;;;;;;;19.88;12.13;;;;;;;;;;5042333;28;20426;-69
2023/10/07 04:29:51;;;;;;;18.05;12.63;;;;;;;;;;5041721;28;20908;-69
2023/10/07 04:32:21;;;;;;;20.50;12.13;;;;;;;;;;5040771;28;20419;-68
2023/10/07 04:35:06;;;;;;;21.95;13.63;;;;;;;;;;5044499;28;20881;-69
2023/10/07 04:37:47;;;;;;;22.42;13.20;;;;;;;;;;5040534;28;20534;-69
2023/10/07 04:43:25;;;;;;;22.95;13.43;;;;;;;;;;5040377;28;20465;-69
2023/10/07 04:45:50;;;;;;;19.50;13.07;;;;;;;;;;5040067;28;20551;-69
2023/10/07 04:48:41;;;;;;;20.58;13.52;;;;;;;;;;5041895;28;20537;-68
2023/10/07 04:51:12;;;;;;;23.77;14.20;;;;;;;;;;5041954;28;20898;-69
2023/10/07 04:53:40;;;;;;;21.98;14.23;;;;;;;;;;5043096;28;20529;-69
2023/10/07 04:56:06;;;;;;;22.58;13.60;;;;;;;;;;5041669;28;20895;-68
2023/10/07 04:58:33;;;;;;;20.65;13.40;;;;;;;;;;5042233;28;20420;-68
2023/10/07 05:01:06;;;;;;;23.20;14.03;;;;;;;;;;5039767;28;20891;-69
2023/10/07 05:03:33;;;;;;;21.13;13.95;;;;;;;;;;5040909;28;20465;-69
2023/10/07 05:05:59;;;;;;;21.63;14.45;;;;;;;;;;5042554;28;20413;-69
2023/10/07 05:08:28;;;;;;;23.23;13.93;;;;;;;;;;5039898;28;20422;-68
2023/10/07 05:11:04;;;;;;;22.33;14.40;;;;;;;;;;5043459;28;20964;-68
2023/10/07 05:13:33;;;;;;;23.20;14.00;;;;;;;;;;5038860;28;20497;-68
2023/10/07 05:16:05;;;;;;;23.08;14.57;;;;;;;;;;5041145;28;20538;-68
2023/10/07 05:18:31;;;;;;;22.67;13.80;;;;;;;;;;5039622;28;20450;-68
2023/10/07 05:20:58;;;;;;;21.40;13.63;;;;;;;;;;5041540;28;20417;-68
2023/10/07 05:23:25;;;;;;;20.92;13.38;;;;;;;;;;5042466;28;20437;-69
2023/10/07 05:25:54;;;;;;;22.05;14.20;;;;;;;;;;5041897;28;20452;-68
2023/10/07 05:28:21;;;;;;;19.50;13.63;;;;;;;;;;5040246;28;20559;-69
2023/10/07 05:30:51;;;;;;;20.05;13.25;;;;;;;;;;5039145;28;20924;-69
2023/10/07 05:33:20;;;;;;;22.30;13.60;;;;;;;;;;5039356;28;20448;-68
2023/10/07 05:35:49;;;;;;;17.42;12.35;;;;;;;;;;5040230;28;20945;-69
2023/10/07 05:38:16;;;;;;;19.80;13.02;;;;;;;;;;5042072;28;20421;-68
2023/10/07 05:40:43;;;;;;;25.85;13.82;;;;;;;;;;5039496;28;20461;-69
2023/10/07 05:43:12;;;;;;;22.48;13.27;;;;;;;;;;5040336;28;20405;-69
2023/10/07 05:45:40;;;;;;;19.48;13.20;;;;;;;;;;5041963;28;20413;-69
2023/10/07 05:48:10;;;;;;;21.05;13.80;;;;;;;;;;5039632;28;20418;-69
2023/10/07 05:50:38;;;;;;;20.13;13.00;;;;;;;;;;5039556;28;20436;-69
2023/10/07 05:53:05;;;;;;;21.80;13.73;;;;;;;;;;5044070;28;20416;-69
2023/10/07 05:55:33;;;;;;;18.25;13.13;;;;;;;;;;5039695;28;20423;-69
2023/10/07 05:58:01;;;;;;;18.93;13.10;;;;;;;;;;5043142;28;20416;-69
2023/10/07 06:00:31;;;;;;;20.57;13.10;;;;;;;;;;5038976;28;20913;-70
2023/10/07 06:02:59;;;;;;;21.67;13.88;;;;;;;;;;5040628;28;20482;-68
2023/10/07 06:05:28;;;;;;;21.00;13.20;;;;;;;;;;5041758;28;20439;-69
2023/10/07 06:07:57;;;;;;;17.40;12.93;;;;;;;;;;5039671;28;20461;-69
2023/10/07 06:10:24;;;;;;;20.05;12.25;;;;;;;;;;5040056;28;20469;-70
2023/10/07 06:12:51;;;;;;;17.38;11.98;;;;;;;;;;5042152;28;20455;-69
2023/10/07 06:15:18;;;;;;;17.92;12.25;;;;;;;;;;5039101;28;20881;-69
2023/10/07 06:17:46;;;;;;;19.92;12.48;;;;;;;;;;5040028;28;20897;-69
2023/10/07 06:20:15;;;;;;;20.17;13.07;;;;;;;;;;5041815;28;20409;-69
2023/10/07 06:22:46;;;;;;;20.60;12.80;;;;;;;;;;5041408;28;20440;-69
2023/10/07 06:25:15;;;;;;;15.55;11.23;;;;;;;;;;5040531;28;20414;-68
2023/10/07 06:27:43;;;;;;;19.05;11.18;;;;;;;;;;5038463;28;20415;-69
2023/10/07 06:30:11;;;;;;;19.40;11.70;;;;;;;;;;5039997;28;20929;-69
2023/10/07 06:32:44;;;;;;;17.08;11.63;;;;;;;;;;5041515;28;20405;-69
2023/10/07 06:35:14;;;;;;;18.30;10.82;;;;;;;;;;5044085;28;20497;-69
2023/10/07 06:37:41;;;;;;;17.40;11.18;;;;;;;;;;5041620;28;20413;-69
2023/10/07 06:40:24;;;;;;;16.50;11.32;;;;;;;;;;5042668;28;20401;-70
2023/10/07 06:42:51;;;;;;;17.33;11.38;;;;;;;;;;5045871;28;20488;-69
2023/10/07 06:45:18;;;;;;;17.85;10.85;;;;;;;;;;5043173;28;20457;-71
2023/10/07 06:47:46;;;;;;;16.90;10.45;;;;;;;;;;5043482;28;20415;-68
2023/10/07 06:50:19;;;;;;;17.95;11.00;;;;;;;;;;5045349;28;20513;-69
2023/10/07 06:52:49;;;;;;;18.27;10.60;;;;;;;;;;5045611;28;20416;-69
2023/10/07 06:55:16;;;;;;;22.02;11.45;;;;;;;;;;5041916;28;20923;-69
2023/10/07 06:57:46;;;;;;;14.63;10.17;;;;;;;;;;5044780;28;20444;-68
2023/10/07 07:00:22;;;;;;;16.98;10.68;;;;;;;;;;5044677;28;20445;-70
2023/10/07 07:02:54;;;;;;;16.35;11.30;;;;;;;;;;5043801;28;20476;-69
2023/10/07 07:05:23;;;;;;;16.30;10.75;;;;;;;;;;5042276;28;20418;-69
2023/10/07 07:07:52;;;;;;;19.67;11.25;;;;;;;;;;5045694;28;20869;-69
2023/10/07 07:10:27;;;;;;;18.27;11.15;;;;;;;;;;5043128;28;20446;-69
2023/10/07 07:12:58;;;;;;;15.60;9.85;;;;;;;;;;5042132;28;21058;-69
2023/10/07 07:15:27;;;;;;;18.67;10.43;;;;;;;;;;5042746;28;20544;-69
2023/10/07 07:18:04;;;;;;;14.48;10.20;;;;;;;;;;5044760;28;20507;-69
2023/10/07 07:20:48;;;;;;;16.58;10.10;;;;;;;;;;5044295;28;20476;-69
2023/10/07 07:23:16;;;;;;;15.80;9.48;;;;;;;;;;5044330;28;20407;-69
2023/10/07 07:25:49;;;;;;;17.75;9.40;;;;;;;;;;5041380;28;20526;-69
2023/10/07 07:28:17;;;;;;;15.85;9.18;;;;;;;;;;5042736;28;20417;-69
2023/10/07 07:30:45;;;;;;;13.90;8.82;;;;;;;;;;5044548;28;20425;-70
2023/10/07 07:33:15;;;;;;;15.63;9.10;;;;;;;;;;5042141;28;20491;-69
2023/10/07 07:35:44;;;;;;;13.27;9.23;;;;;;;;;;5042509;28;20942;-70
2023/10/07 07:38:20;;;;;;;13.65;8.18;;;;;;;;;;5044906;28;20522;-69
2023/10/07 07:40:49;;;;;;;15.52;8.38;;;;;;;;;;5049530;28;20415;-68
2023/10/07 07:43:19;;;;;;;14.43;8.03;;;;;;;;;;5048185;28;21062;-69
2023/10/07 07:45:48;;;;;;;12.00;7.13;;;;;;;;;;5042665;28;20897;-69
2023/10/07 07:48:16;;;;;;;12.27;7.00;;;;;;;;;;5041479;28;20419;-68
2023/10/07 07:50:45;;;;;;;13.70;7.25;;;;;;;;;;5043561;28;20461;-69
2023/10/07 07:53:12;;;;;;;15.90;7.80;;;;;;;;;;5043094;28;20415;-70
2023/10/07 07:55:43;;;;;;;12.65;7.90;;;;;;;;;;5040497;28;20445;-69
2023/10/07 07:58:10;;;;;;;13.70;7.25;;;;;;;;;;5042726;28;20424;-70
2023/10/07 08:00:44;;;;;;;15.27;7.20;;;;;;;;;;5043277;28;20405;-68
2023/10/07 08:03:11;;;;;;;10.90;6.32;;;;;;;;;;5041399;28;20419;-69
2023/10/07 08:05:41;;;;;;;11.27;6.25;;;;;;;;;;5041848;28;21019;-69
2023/10/07 08:08:19;;;;;;;12.10;6.60;;;;;;;;;;5043536;28;20492;-69
2023/10/07 08:10:47;;;;;;;13.60;6.60;;;;;;;;;;5043127;28;20421;-70
2023/10/07 08:13:17;;;;;;;11.60;6.28;;;;;;;;;;5040694;28;20450;-69
2023/10/07 08:15:47;;;;;;;11.38;5.47;;;;;;;;;;5042023;28;20417;-69
2023/10/07 08:18:15;;;;;;;11.18;6.43;;;;;;;;;;5043669;28;20845;-69
2023/10/07 08:20:44;;;;;;;14.13;6.47;;;;;;;;;;5041321;28;20473;-70
2023/10/07 08:23:22;;;;;;;10.73;5.90;;;;;;;;;;5041612;28;20410;-68
2023/10/07 08:25:57;;;;;;;10.90;5.88;;;;;;;;;;5041369;28;20417;-69
2023/10/07 08:28:39;;;;;;;12.05;5.95;;;;;;;;;;5032873;28;20453;-65
2023/10/07 08:31:13;;;;;;;10.02;5.30;;;;;;;;;;5039487;28;21077;-67
2023/10/07 08:33:40;;;;;;;10.52;5.30;;;;;;;;;;5041145;28;20810;-66
2023/10/07 08:36:08;;;;;;;9.73;5.40;;;;;;;;;;5044856;28;20459;-69
2023/10/07 08:38:44;;;;;;;9.63;5.10;;;;;;;;;;5042867;28;20406;-68
2023/10/07 08:41:16;;;;;;;10.07;5.60;;;;;;;;;;5044584;28;20547;-68
2023/10/07 08:43:44;;;;;;;11.75;5.22;;;;;;;;;;5043817;28;20440;-67
2023/10/07 08:46:16;;;;;;;10.50;5.25;;;;;;;;;;5040077;28;20434;-69
2023/10/07 08:48:49;;;;;;;11.68;5.57;;;;;;;;;;5046420;28;20410;-71
2023/10/07 08:51:21;;;;;;;8.95;5.32;;;;;;;;;;5042927;28;20433;-67
2023/10/07 08:53:51;;;;;;;8.43;5.13;;;;;;;;;;5039683;28;20415;-67
2023/10/07 08:56:20;;;;;;;9.30;5.28;;;;;;;;;;5040673;28;20416;-66
2023/10/07 08:58:49;;;;;;;10.32;5.25;;;;;;;;;;5042138;28;20517;-67
2023/10/07 09:01:24;;;;;;;9.98;5.13;;;;;;;;;;5040492;28;20506;-68
2023/10/07 09:03:54;;;;;;;11.07;5.30;;;;;;;;;;5039388;28;20498;-70
2023/10/07 09:06:21;;;;;;;11.15;5.32;;;;;;;;;;5043702;28;20415;-70
2023/10/07 09:08:49;;;;;;;9.95;5.35;;;;;;;;;;5043213;28;20419;-67
2023/10/07 09:11:19;;;;;;;9.63;4.80;;;;;;;;;;5044708;28;20431;-66
2023/10/07 09:13:47;;;;;;;10.43;5.30;;;;;;;;;;5045826;28;20809;-67
2023/10/07 09:16:14;;;;;;;7.55;4.95;;;;;;;;;;5048283;28;20420;-68
2023/10/07 09:18:41;;;;;;;9.18;5.05;;;;;;;;;;5044028;28;20413;-68
2023/10/07 09:21:18;;;;;;;10.90;5.10;;;;;;;;;;5042798;28;20463;-68
2023/10/07 09:23:52;;;;;;;7.80;5.10;;;;;;;;;;5038252;28;20486;-68
2023/10/07 09:26:30;;;;;;;9.27;5.20;;;;;;;;;;5039497;28;20477;-68
2023/10/07 09:28:59;;;;;;;12.57;5.22;;;;;;;;;;5039405;28;20505;-67
2023/10/07 09:31:27;;;;;;;9.70;4.60;;;;;;;;;;5039146;28;20423;-68
2023/10/07 09:33:55;;;;;;;8.97;5.07;;;;;;;;;;5039105;28;20997;-68
2023/10/07 09:36:33;;;;;;;10.27;4.65;;;;;;;;;;5039971;28;20796;-70
2023/10/07 09:39:31;;;;;;;13.07;4.87;;;;;;;;;;5038226;28;20502;-70
2023/10/07 09:42:04;;;;;;;7.60;4.30;;;;;;;;;;5038559;28;20418;-70
2023/10/07 09:44:31;;;;;;;7.43;4.65;;;;;;;;;;5038763;28;20468;-70
2023/10/07 09:47:03;;;;;;;7.32;4.28;;;;;;;;;;5039820;28;20416;-69
2023/10/07 09:49:32;;;;;;;9.50;4.43;;;;;;;;;;5038134;28;20427;-69
2023/10/07 09:52:15;;;;;;;9.80;4.47;;;;;;;;;;5040490;28;20833;-69
2023/10/07 09:54:47;;;;;;;8.18;4.13;;;;;;;;;;5040492;28;20854;-68
2023/10/07 09:57:20;;;;;;;15.68;6.22;;;;;;;;;;5034323;28;20426;-68
2023/10/07 09:59:59;;;;;;;13.95;5.60;;;;;;;;;;5037831;28;20767;-73
2023/10/07 10:02:42;;;;;;;10.73;4.60;;;;;;;;;;5038409;28;20907;-69
2023/10/07 10:05:26;;;;;;;8.38;4.15;;;;;;;;;;5037991;28;20509;-70
2023/10/07 10:08:19;;;;;;;9.65;4.35;;;;;;;;;;5038040;28;20900;-68
2023/10/07 10:10:50;;;;;;;11.68;4.78;;;;;;;;;;5040783;28;21021;-69
2023/10/07 10:13:28;;;;;;;8.18;3.95;;;;;;;;;;5040121;28;20417;-71
2023/10/07 10:16:00;;;;;;;6.93;3.80;;;;;;;;;;5037129;28;20975;-71
2023/10/07 10:18:39;;;;;;;7.68;4.13;;;;;;;;;;5038386;28;20481;-70
2023/10/07 10:21:09;;;;;;;7.03;4.30;;;;;;;;;;5037629;28;20817;-71
2023/10/07 10:23:37;;;;;;;10.18;4.50;;;;;;;;;;5041287;28;20473;-70
2023/10/07 10:26:15;;;;;;;7.65;3.72;;;;;;;;;;5040494;28;20415;-69
2023/10/07 10:28:43;;;;;;;10.60;4.00;;;;;;;;;;5044123;28;20420;-69
2023/10/07 10:31:19;;;;;;;9.55;3.50;;;;;;;;;;5041065;28;20429;-69
2023/10/07 10:33:49;;;;;;;8.15;3.60;;;;;;;;;;5041482;28;20496;-68
2023/10/07 10:36:17;;;;;;;12.23;3.67;;;;;;;;;;5039709;28;20413;-67
2023/10/07 10:38:45;;;;;;;8.68;3.80;;;;;;;;;;5040161;28;20413;-69
2023/10/07 10:41:13;;;;;;;10.30;3.70;;;;;;;;;;5037727;28;21126;-68
2023/10/07 10:43:40;;;;;;;7.53;3.40;;;;;;;;;;5038714;28;20966;-68
2023/10/07 10:46:09;;;;;;;7.32;3.33;;;;;;;;;;5040278;28;20499;-68
2023/10/07 10:48:37;;;;;;;6.30;3.40;;;;;;;;;;5037007;28;20414;-69
2023/10/07 10:51:06;;;;;;;6.60;3.78;;;;;;;;;;5038636;28;20433;-69
2023/10/07 10:53:33;;;;;;;9.15;3.65;;;;;;;;;;5040494;28;20561;-68
2023/10/07 10:56:00;;;;;;;8.63;3.87;;;;;;;;;;5040045;28;20486;-67
2023/10/07 10:58:30;;;;;;;8.32;3.47;;;;;;;;;;5047037;28;20410;-65
2023/10/07 11:00:57;;;;;;;8.43;3.47;;;;;;;;;;5044366;28;20426;-65
2023/10/07 11:03:24;;;;;;;8.20;3.72;;;;;;;;;;5043641;28;20413;-66
2023/10/07 11:05:52;;;;;;;7.82;3.40;;;;;;;;;;5039706;28;20413;-66
2023/10/07 11:08:22;;;;;;;6.83;3.00;;;;;;;;;;5036764;28;20410;-66
2023/10/07 11:10:51;;;;;;;7.80;3.40;;;;;;;;;;5041466;28;20932;-67
2023/10/07 11:13:19;;;;;;;7.28;3.25;;;;;;;;;;5038833;28;20413;-67
2023/10/07 11:16:08;;;;;;;7.03;3.30;;;;;;;;;;5037589;28;20410;-68
2023/10/07 11:19:07;;;;;;;6.95;3.08;;;;;;;;;;5040129;28;21054;-68
2023/10/07 11:21:41;;;;;;;6.60;3.25;;;;;;;;;;5039769;28;20416;-67
2023/10/07 11:24:08;;;;;;;5.28;3.20;;;;;;;;;;5042000;28;20417;-67
2023/10/07 11:26:36;;;;;;;7.65;3.80;;;;;;;;;;5036626;28;20426;-67
2023/10/07 11:29:11;;;;;;;6.53;3.20;;;;;;;;;;5038965;28;20441;-67
2023/10/07 11:31:41;;;;;;;6.90;3.10;;;;;;;;;;5042340;28;20508;-67
2023/10/07 11:34:08;;;;;;;6.10;3.03;;;;;;;;;;5048289;28;20546;-67
2023/10/07 11:36:48;;;;;;;8.40;3.28;;;;;;;;;;5043427;28;20421;-67
2023/10/07 11:39:15;;;;;;;5.95;2.78;;;;;;;;;;5048377;28;20801;-67
2023/10/07 11:41:43;;;;;;;6.20;2.67;;;;;;;;;;5047330;28;20405;-67
2023/10/07 11:44:10;;;;;;;7.65;3.17;;;;;;;;;;5047404;28;20918;-67
2023/10/07 11:46:41;;;;;;;6.68;2.95;;;;;;;;;;5046689;28;20415;-67
2023/10/07 11:49:08;;;;;;;9.65;2.78;;;;;;;;;;5041939;28;20919;-68
2023/10/07 11:51:35;;;;;;;7.07;2.80;;;;;;;;;;5043604;28;20456;-68
2023/10/07 11:54:02;;;;;;;5.40;3.00;;;;;;;;;;5046762;28;20463;-68
2023/10/07 11:56:29;;;;;;;5.47;2.70;;;;;;;;;;5042191;28;20517;-67
2023/10/07 11:58:56;;;;;;;5.57;3.00;;;;;;;;;;5040395;28;20415;-67
2023/10/07 12:01:24;;;;;;;4.97;2.50;;;;;;;;;;5040185;28;20414;-68
2023/10/07 12:03:53;;;;;;;5.15;2.70;;;;;;;;;;5042250;28;20411;-68
2023/10/07 12:06:20;;;;;;;4.93;2.80;;;;;;;;;;5043217;28;20417;-67
2023/10/07 12:08:47;;;;;;;7.00;2.97;;;;;;;;;;5038445;28;20890;-67
2023/10/07 12:11:14;;;;;;;7.53;2.85;;;;;;;;;;5042153;28;20429;-67
2023/10/07 12:13:41;;;;;;;6.90;2.85;;;;;;;;;;5043175;28;20803;-68
2023/10/07 12:16:09;;;;;;;6.63;3.00;;;;;;;;;;5039542;28;20502;-68
2023/10/07 12:18:36;;;;;;;5.95;3.03;;;;;;;;;;5041482;28;20413;-67
2023/10/07 12:21:11;;;;;;;5.30;2.65;;;;;;;;;;5039925;28;20503;-68
2023/10/07 12:23:41;;;;;;;9.18;2.92;;;;;;;;;;5049390;28;20991;-68
2023/10/07 12:26:12;;;;;;;6.57;3.40;;;;;;;;;;5040895;28;20417;-68
2023/10/07 12:28:52;;;;;;;5.43;2.67;;;;;;;;;;5039531;28;20416;-68
2023/10/07 12:31:37;;;;;;;5.80;3.10;;;;;;;;;;5043268;28;20431;-69
2023/10/07 12:34:08;;;;;;;7.13;2.97;;;;;;;;;;5043002;28;20453;-68
2023/10/07 12:36:38;;;;;;;7.15;2.83;;;;;;;;;;5040502;28;20871;-67
2023/10/07 12:39:10;;;;;;;7.20;2.70;;;;;;;;;;5039235;28;20497;-67
2023/10/07 12:41:37;;;;;;;5.68;3.10;;;;;;;;;;5041914;28;20471;-67
2023/10/07 12:44:04;;;;;;;8.38;3.17;;;;;;;;;;5042500;28;20493;-66
2023/10/07 12:46:31;;;;;;;7.00;3.00;;;;;;;;;;5043569;28;20426;-67
2023/10/07 12:48:58;;;;;;;7.40;2.85;;;;;;;;;;5041407;28;20768;-66
2023/10/07 12:51:25;;;;;;;6.55;2.80;;;;;;;;;;5040005;28;20425;-67
2023/10/07 12:53:56;;;;;;;4.45;2.55;;;;;;;;;;5041013;28;20411;-67
2023/10/07 12:56:27;;;;;;;5.72;3.20;;;;;;;;;;5042148;28;20414;-66
2023/10/07 12:58:55;;;;;;;4.13;2.55;;;;;;;;;;5047005;28;20460;-66
2023/10/07 13:01:22;;;;;;;7.20;3.10;;;;;;;;;;5047958;28;20862;-66
2023/10/07 13:03:52;;;;;;;5.83;3.03;;;;;;;;;;5041418;28;20465;-67
2023/10/07 13:06:19;;;;;;;9.98;3.20;;;;;;;;;;5042619;28;20415;-66
2023/10/07 13:08:49;;;;;;;7.75;3.20;;;;;;;;;;5041315;28;20417;-67
2023/10/07 13:11:20;;;;;;;5.70;2.90;;;;;;;;;;5041755;28;20425;-68
2023/10/07 13:13:48;;;;;;;8.85;3.03;;;;;;;;;;5042884;28;20409;-68
2023/10/07 13:16:17;;;;;;;6.57;3.05;;;;;;;;;;5037895;28;20418;-68
2023/10/07 13:18:45;;;;;;;6.70;3.67;;;;;;;;;;5041316;28;20451;-68
2023/10/07 13:21:14;;;;;;;5.95;2.90;;;;;;;;;;5039199;28;20423;-69
2023/10/07 13:23:42;;;;;;;6.97;3.30;;;;;;;;;;5039740;28;20454;-69
2023/10/07 13:26:11;;;;;;;7.60;3.28;;;;;;;;;;5044655;28;20420;-68
2023/10/07 13:28:39;;;;;;;6.28;3.40;;;;;;;;;;5040195;28;20489;-68
2023/10/07 13:31:07;;;;;;;8.00;3.40;;;;;;;;;;5039631;28;20474;-68
2023/10/07 13:33:36;;;;;;;8.35;3.30;;;;;;;;;;5039187;28;20925;-68
2023/10/07 13:36:03;;;;;;;7.20;3.58;;;;;;;;;;5039352;28;20415;-66
2023/10/07 13:38:30;;;;;;;8.03;3.60;;;;;;;;;;5042626;28;20475;-68
2023/10/07 13:40:57;;;;;;;7.87;3.67;;;;;;;;;;5036757;28;20417;-67
2023/10/07 13:43:26;;;;;;;7.20;3.30;;;;;;;;;;5046289;28;20801;-68
2023/10/07 13:45:55;;;;;;;6.45;3.42;;;;;;;;;;5043511;28;20499;-68
2023/10/07 13:48:22;;;;;;;6.80;3.30;;;;;;;;;;5043273;28;20409;-68
2023/10/07 13:50:51;;;;;;;7.13;3.40;;;;;;;;;;5042935;28;20510;-68
2023/10/07 13:53:28;;;;;;;9.27;3.60;;;;;;;;;;5042862;28;20465;-68
2023/10/07 13:55:58;;;;;;;5.97;3.25;;;;;;;;;;5037169;28;20996;-68
2023/10/07 13:58:25;;;;;;;5.93;3.23;;;;;;;;;;5041532;28;20413;-67
2023/10/07 14:00:57;;;;;;;6.25;3.50;;;;;;;;;;5039391;28;20472;-68
2023/10/07 14:03:31;;;;;;;7.35;3.40;;;;;;;;;;5042750;28;20420;-68
2023/10/07 14:06:01;;;;;;;6.88;3.30;;;;;;;;;;5041419;28;20472;-68
2023/10/07 14:08:31;;;;;;;7.65;3.42;;;;;;;;;;5040251;28;20417;-68
2023/10/07 14:11:00;;;;;;;7.57;3.60;;;;;;;;;;5034787;28;21264;-67
2023/10/07 14:13:31;;;;;;;9.30;3.55;;;;;;;;;;5040575;28;20483;-68
2023/10/07 14:16:00;;;;;;;9.25;3.63;;;;;;;;;;5038071;28;20502;-68
2023/10/07 14:18:29;;;;;;;8.98;3.42;;;;;;;;;;5041198;28;20445;-68
2023/10/07 14:20:56;;;;;;;6.83;3.87;;;;;;;;;;5050223;28;20436;-69
2023/10/07 14:23:24;;;;;;;7.38;3.67;;;;;;;;;;5049268;28;20496;-67
2023/10/07 14:25:51;;;;;;;5.97;3.83;;;;;;;;;;5035722;28;20411;-68
2023/10/07 14:28:19;;;;;;;9.65;3.40;;;;;;;;;;5038533;28;21080;-67
2023/10/07 14:30:46;;;;;;;6.63;3.80;;;;;;;;;;5039155;28;20422;-68